createdAt,value
2022-10-23T00:02:06.756Z,8.23
2022-10-23T00:07:09.592Z,7.47
2022-10-23T00:12:13.746Z,7.53
2022-10-23T00:17:16.585Z,8.10
2022-10-23T00:22:19.384Z,7.15
2022-10-23T00:32:26.848Z,7.05
2022-10-23T00:37:29.913Z,6.72
2022-10-23T00:42:34.818Z,6.07
2022-10-23T00:47:37.758Z,6.90
2022-10-23T00:52:46.362Z,7.05
2022-10-23T00:57:52.365Z,6.80
2022-10-23T01:02:57.545Z,6.80
2022-10-23T01:08:07.913Z,8.63
2022-10-23T01:13:17.988Z,8.63
2022-10-23T01:18:28.681Z,7.97
2022-10-23T01:23:48.810Z,8.07
2022-10-23T01:28:57.548Z,7.80
2022-10-23T01:34:09.249Z,8.02
2022-10-23T01:39:16.144Z,6.80
2022-10-23T01:44:26.326Z,8.23
2022-10-23T01:49:30.642Z,7.32
2022-10-23T01:54:40.447Z,7.55
2022-10-23T01:59:49.218Z,7.15
2022-10-23T02:04:59.981Z,7.65
2022-10-23T02:10:04.401Z,6.53
2022-10-23T02:15:14.206Z,6.80
2022-10-23T02:20:23.623Z,6.63
2022-10-23T02:25:34.586Z,7.05
2022-10-23T02:30:46.032Z,7.13
2022-10-23T02:35:50.005Z,7.38
2022-10-23T02:41:10.815Z,7.18
2022-10-23T02:46:25.085Z,7.25
2022-10-23T02:51:35.382Z,7.47
2022-10-23T02:56:45.509Z,6.90
2022-10-23T03:01:54.182Z,6.70
2022-10-23T03:06:57.961Z,6.28
2022-10-23T03:12:00.974Z,7.57
2022-10-23T03:17:11.201Z,6.55
2022-10-23T03:22:14.175Z,6.30
2022-10-23T03:27:17.405Z,6.47
2022-10-23T03:32:21.625Z,6.75
2022-10-23T03:37:24.791Z,6.82
2022-10-23T03:42:27.721Z,7.13
2022-10-23T03:47:35.198Z,6.15
2022-10-23T03:52:38.598Z,6.30
2022-10-23T03:57:41.514Z,5.82
2022-10-23T04:02:46.178Z,5.93
2022-10-23T04:07:49.458Z,6.85
2022-10-23T04:12:52.322Z,7.03
2022-10-23T04:17:56.605Z,7.05
2022-10-23T04:22:59.475Z,7.57
2022-10-23T04:28:02.288Z,7.38
2022-10-23T04:33:10.914Z,7.22
2022-10-23T04:38:13.845Z,7.93
2022-10-23T04:43:16.935Z,7.82
2022-10-23T04:48:23.418Z,7.63
2022-10-23T04:53:47.206Z,7.50
2022-10-23T04:59:14.968Z,6.50
2022-10-23T05:04:20.495Z,7.13
2022-10-23T05:09:43.279Z,7.88
2022-10-23T05:15:12.497Z,7.60
2022-10-23T05:20:21.109Z,7.45
2022-10-23T05:25:23.955Z,6.70
2022-10-23T05:30:35.147Z,6.85
2022-10-23T05:35:42.463Z,6.75
2022-10-23T05:40:45.719Z,6.53
2022-10-23T05:45:53.437Z,7.65
2022-10-23T05:51:07.597Z,6.45
2022-10-23T05:56:21.675Z,7.10
2022-10-23T06:01:56.904Z,7.22
2022-10-23T06:07:26.825Z,6.97
2022-10-23T06:12:32.793Z,8.05
2022-10-23T06:17:36.045Z,8.13
2022-10-23T06:22:41.198Z,8.20
2022-10-23T06:27:58.867Z,7.78
2022-10-23T06:33:05.841Z,8.15
2022-10-23T06:38:11.340Z,8.30
2022-10-23T06:43:22.244Z,7.85
2022-10-23T06:48:51.833Z,8.02
2022-10-23T06:54:01.860Z,9.30
2022-10-23T06:59:23.209Z,9.35
2022-10-23T07:04:28.243Z,6.68
2022-10-23T07:09:32.849Z,5.85
2022-10-23T07:14:57.337Z,6.20
2022-10-23T07:20:00.318Z,5.90
2022-10-23T07:25:05.143Z,8.02
2022-10-23T07:30:14.252Z,8.27
2022-10-23T07:35:23.017Z,8.00
2022-10-23T07:40:32.973Z,8.65
2022-10-23T07:45:36.240Z,8.73
2022-10-23T07:50:46.985Z,7.85
2022-10-23T07:55:55.659Z,7.88
2022-10-23T08:01:02.434Z,8.13
2022-10-23T08:06:12.471Z,7.63
2022-10-23T08:11:20.390Z,7.20
2022-10-23T08:16:26.644Z,6.43
2022-10-23T08:21:47.656Z,6.70
2022-10-23T08:26:53.748Z,6.47
2022-10-23T08:31:59.595Z,5.43
2022-10-23T08:37:07.944Z,6.20
2022-10-23T08:42:21.442Z,5.63
2022-10-23T08:47:31.835Z,4.85
2022-10-23T08:53:04.067Z,4.40
2022-10-23T08:58:15.431Z,4.50
2022-10-23T09:03:18.969Z,3.88
2022-10-23T09:08:32.086Z,3.60
2022-10-23T09:14:04.549Z,4.07
2022-10-23T09:19:15.635Z,3.85
2022-10-23T09:24:22.006Z,3.53
2022-10-23T09:29:28.137Z,3.67
2022-10-23T09:34:33.993Z,3.15
2022-10-23T09:39:37.782Z,2.92
2022-10-23T09:44:50.031Z,2.95
2022-10-23T09:49:57.419Z,3.00
2022-10-23T09:55:02.983Z,2.83
2022-10-23T10:00:16.862Z,2.35
2022-10-23T10:05:26.777Z,2.28
2022-10-23T10:10:36.936Z,2.30
2022-10-23T10:15:46.612Z,2.38
2022-10-23T10:20:58.712Z,2.85
2022-10-23T10:26:10.137Z,2.00
2022-10-23T10:31:20.933Z,1.83
2022-10-23T10:36:41.817Z,2.20
2022-10-23T10:41:53.956Z,2.10
2022-10-23T10:47:00.617Z,2.13
2022-10-23T10:52:19.432Z,2.75
2022-10-23T10:57:30.587Z,2.00
2022-10-23T11:02:41.419Z,2.00
2022-10-23T11:07:55.481Z,2.05
2022-10-23T11:12:58.636Z,1.85
2022-10-23T11:18:04.874Z,1.98
2022-10-23T11:23:35.804Z,1.92
2022-10-23T11:28:57.814Z,1.92
2022-10-23T11:34:15.555Z,2.22
2022-10-23T11:39:22.935Z,1.67
2022-10-23T11:44:43.809Z,2.28
2022-10-23T11:49:49.093Z,1.63
2022-10-23T11:55:03.352Z,2.03
2022-10-23T12:00:22.993Z,1.63
2022-10-23T12:05:32.650Z,1.40
2022-10-23T12:10:45.346Z,1.83
2022-10-23T12:15:57.165Z,1.60
2022-10-23T12:21:04.640Z,1.83
2022-10-23T12:26:39.686Z,1.58
2022-10-23T12:31:52.765Z,1.40
2022-10-23T12:37:07.783Z,1.90
2022-10-23T12:42:17.674Z,1.45
2022-10-23T12:47:22.335Z,1.58
2022-10-23T12:52:25.597Z,1.17
2022-10-23T12:57:31.337Z,1.50
2022-10-23T13:02:35.633Z,1.80
2022-10-23T13:07:45.381Z,1.88
2022-10-23T13:12:54.759Z,1.50
2022-10-23T13:18:07.001Z,1.70
2022-10-23T13:23:13.355Z,1.55
2022-10-23T13:28:25.447Z,2.33
2022-10-23T13:33:36.428Z,2.20
2022-10-23T13:38:40.894Z,2.00
2022-10-23T13:43:46.938Z,1.75
2022-10-23T13:48:51.062Z,1.60
2022-10-23T13:53:54.656Z,1.35
2022-10-23T13:58:57.464Z,1.45
2022-10-23T14:04:01.660Z,1.50
2022-10-23T14:09:05.620Z,1.90
2022-10-23T14:14:08.949Z,1.55
2022-10-23T14:19:13.441Z,1.52
2022-10-23T14:24:16.325Z,1.38
2022-10-23T14:29:24.161Z,1.73
2022-10-23T14:34:28.756Z,1.35
2022-10-23T14:39:31.751Z,1.17
2022-10-23T14:44:34.632Z,1.63
2022-10-23T14:49:40.282Z,1.33
2022-10-23T14:54:43.254Z,1.38
2022-10-23T14:59:46.009Z,1.35
2022-10-23T15:04:50.209Z,1.50
2022-10-23T15:09:52.973Z,1.65
2022-10-23T15:14:56.197Z,1.30
2022-10-23T15:20:01.071Z,2.03
2022-10-23T15:25:04.059Z,1.27
2022-10-23T15:30:09.562Z,1.10
2022-10-23T15:35:13.773Z,1.38
2022-10-23T15:40:16.739Z,1.48
2022-10-23T15:45:19.609Z,1.90
2022-10-23T15:50:24.060Z,1.48
2022-10-23T15:55:26.941Z,2.08
2022-10-23T16:00:29.823Z,3.25
2022-10-23T16:05:34.032Z,2.00
2022-10-23T16:10:39.964Z,1.65
2022-10-23T16:15:42.807Z,2.10
2022-10-23T16:20:47.345Z,1.60
2022-10-23T16:25:51.105Z,2.38
2022-10-23T16:30:53.917Z,2.13
2022-10-23T16:36:03.497Z,2.13
2022-10-23T16:41:07.196Z,3.95
2022-10-23T16:46:31.112Z,1.88
2022-10-23T16:51:35.728Z,2.20
2022-10-23T16:56:38.585Z,1.60
2022-10-23T17:01:41.561Z,2.17
2022-10-23T17:06:45.998Z,2.90
2022-10-23T17:11:51.048Z,1.98
2022-10-23T17:16:54.234Z,2.33
2022-10-23T17:21:59.159Z,1.70
2022-10-23T17:27:01.967Z,1.90
2022-10-23T17:32:05.139Z,1.90
2022-10-23T17:37:10.119Z,1.70
2022-10-23T17:42:13.056Z,2.22
2022-10-23T17:47:15.839Z,2.40
2022-10-23T17:52:20.009Z,1.85
2022-10-23T18:02:30.803Z,2.10
2022-10-23T18:07:35.014Z,2.17
2022-10-23T18:12:37.785Z,1.75
2022-10-23T18:17:40.689Z,2.05
2022-10-23T18:22:45.242Z,2.05
2022-10-23T18:27:48.168Z,2.00
2022-10-23T18:32:50.922Z,2.08
2022-10-23T18:37:55.082Z,2.15
2022-10-23T18:42:57.840Z,2.22
2022-10-23T18:48:01.473Z,1.70
2022-10-23T18:53:06.290Z,2.60
2022-10-23T18:58:09.074Z,2.50
2022-10-23T19:03:12.914Z,2.95
2022-10-23T19:08:17.065Z,4.03
2022-10-23T19:13:20.857Z,4.40
2022-10-23T19:18:23.709Z,3.85
2022-10-23T19:23:30.037Z,3.35
2022-10-23T19:28:37.557Z,3.88
2022-10-23T19:33:41.371Z,2.70
2022-10-23T19:38:45.536Z,3.40
2022-10-23T19:43:48.309Z,4.15
2022-10-23T19:48:51.090Z,3.92
2022-10-23T19:53:57.075Z,3.15
2022-10-23T19:58:59.889Z,3.85
2022-10-23T20:04:02.698Z,3.55
2022-10-23T20:09:09.790Z,2.85
2022-10-23T20:14:13.292Z,2.65
2022-10-23T20:24:27.308Z,2.78
2022-10-23T20:29:30.167Z,3.45
2022-10-23T20:34:33.005Z,2.80
2022-10-23T20:39:39.188Z,2.67
2022-10-23T20:44:41.955Z,2.63
2022-10-23T20:49:44.705Z,3.10
2022-10-23T20:54:51.792Z,3.00
2022-10-23T20:59:54.660Z,2.92
2022-10-23T21:04:57.393Z,3.28
2022-10-23T21:10:01.580Z,2.90
2022-10-23T21:15:04.653Z,2.80
2022-10-23T21:20:08.266Z,2.90
2022-10-23T21:25:12.405Z,2.72
2022-10-23T21:30:15.949Z,2.80
2022-10-23T21:35:18.742Z,1.73
2022-10-23T21:40:22.897Z,2.53
2022-10-23T21:45:26.459Z,1.90
2022-10-23T21:50:29.341Z,2.45
2022-10-23T21:55:33.477Z,2.80
2022-10-23T22:00:36.228Z,2.10
2022-10-23T22:05:38.973Z,2.42
2022-10-23T22:10:43.079Z,2.53
2022-10-23T22:15:46.055Z,2.50
2022-10-23T22:20:48.941Z,2.28
2022-10-23T22:25:53.081Z,2.40
2022-10-23T22:30:55.876Z,2.60
2022-10-23T22:36:02.823Z,2.22
2022-10-23T22:41:07.617Z,1.88
2022-10-23T22:46:12.550Z,2.00
2022-10-23T22:51:17.340Z,1.70
2022-10-23T22:56:23.372Z,2.20
2022-10-23T23:01:30.103Z,1.83
2022-10-23T23:06:34.138Z,2.30
2022-10-23T23:11:45.829Z,1.90
2022-10-23T23:16:55.017Z,1.95
2022-10-23T23:21:58.597Z,2.42
2022-10-23T23:27:02.731Z,2.25
2022-10-23T23:32:06.165Z,1.95
2022-10-23T23:37:08.941Z,2.33
2022-10-23T23:42:13.070Z,2.50
2022-10-23T23:47:15.888Z,2.20
2022-10-23T23:52:18.766Z,2.63
2022-10-23T23:57:22.872Z,2.10
